Holland, Ohio
Current Conditions -  °F | °C
As of 1:52 AM on Sunday 26 Oct 2014 (Local Time) from KTOL Reporting Station
Clear Clear  
Wind Chill: 43°   Ceiling: Unl
Heat Index: 47°   Visibility: 10mi
Dew Point: 32°   Wind: 8mph
Humidity: 56%   Direction: 260°W
Pressure: 29.87"   Gusts: NA
Location:  41.62°N, 83.71°W
Report Text: KTOL 260552Z 26007KT 10SM CLR 08/00 A2987 RMK AO2 SLP113 T00830000 10144 20083 53003
Loading
Personal Weather Stations






























Interactive Weather Map
Tropical Storm Tracking
New forecast layout! Learn more

10-Day Weather Forecast

Advertisements
Track Severe Weather on mobile